Time;durP1;ratioP1;P1;durP2;ratioP2;P2;SDS_P1;SDS_P2;PMS_P1;PMS_P2;Temp;Humidity;BMP_temperature;BMP_pressure;BME280_temperature;BME280_humidity;BME280_pressure;Samples;Min_cycle;Max_cycle;Signal;HPM_P1;HPM_P2
2023/05/29 00:02:18;;;;;;;;;;;;;;;;;;4974498;28;19913;-69
2023/05/29 00:04:44;;;;;;;;;;;;;;;;;;4980822;28;19991;-69
2023/05/29 00:07:10;;;;;;;;;;;;;;;;;;4978071;28;19987;-70
2023/05/29 00:09:36;;;;;;;;;;;;;;;;;;4976017;28;19917;-69
2023/05/29 00:12:02;;;;;;;;;;;;;;;;;;4989803;28;19913;-69
2023/05/29 00:14:28;;;;;;;;;;;;;;;;;;5005859;28;19914;-69
2023/05/29 00:16:54;;;;;;;;;;;;;;;;;;4976379;28;20487;-69
2023/05/29 00:19:21;;;;;;;;;;;;;;;;;;4974365;28;19913;-69
2023/05/29 00:21:47;;;;;;;;;;;;;;;;;;4976715;28;20176;-69
2023/05/29 00:24:13;;;;;;;;;;;;;;;;;;4974046;28;19963;-69
2023/05/29 00:26:39;;;;;;;;;;;;;;;;;;4980493;28;19913;-69
2023/05/29 00:29:05;;;;;;;;;;;;;;;;;;4973777;28;19917;-69
2023/05/29 00:31:33;;;;;;;;;;;;;;;;;;4979235;28;19926;-69
2023/05/29 00:33:59;;;;;;;;;;;;;;;;;;4978970;28;20169;-69
2023/05/29 00:36:25;;;;;;;;;;;;;;;;;;4972721;28;19917;-69
2023/05/29 00:38:51;;;;;;;;;;;;;;;;;;4977871;28;20448;-69
2023/05/29 00:41:17;;;;;;;;;;;;;;;;;;4975613;28;19913;-69
2023/05/29 00:43:43;;;;;;;;;;;;;;;;;;4978017;28;19913;-69
2023/05/29 00:46:09;;;;;;;;;;;;;;;;;;4976300;28;19924;-69
2023/05/29 00:48:35;;;;;;;;;;;;;;;;;;4975828;28;19922;-69
2023/05/29 00:51:01;;;;;;;;;;;;;;;;;;4974463;28;20016;-69
2023/05/29 00:53:27;;;;;;;;;;;;;;;;;;4972754;28;19928;-69
2023/05/29 00:55:53;;;;;;;;;;;;;;;;;;4976358;28;20393;-69
2023/05/29 00:58:19;;;;;;;;;;;;;;;;;;4973482;28;19913;-69
2023/05/29 01:00:45;;;;;;;;;;;;;;;;;;4975179;28;19925;-69
2023/05/29 01:03:14;;;;;;;;;;;;;;;;;;4977235;28;20276;-69
2023/05/29 01:05:41;;;;;;;;;;;;;;;;;;4977153;28;19917;-71
2023/05/29 01:08:07;;;;;;;;;;;;;;;;;;4975324;28;19913;-69
2023/05/29 01:10:34;;;;;;;;;;;;;;;;;;4978076;28;20498;-70
2023/05/29 01:13:00;;;;;;;;;;;;;;;;;;4978282;28;20363;-69
2023/05/29 01:15:26;;;;;;;;;;;;;;;;;;4980380;28;19914;-69
2023/05/29 01:17:52;;;;;;;;;;;;;;;;;;4975746;28;19921;-69
2023/05/29 01:20:19;;;;;;;;;;;;;;;;;;4976187;28;20309;-69
2023/05/29 01:22:44;;;;;;;;;;;;;;;;;;4975143;28;19914;-69
2023/05/29 01:25:11;;;;;;;;;;;;;;;;;;4975958;28;19928;-69
2023/05/29 01:27:38;;;;;;;;;;;;;;;;;;4978013;28;20009;-69
2023/05/29 01:30:05;;;;;;;;;;;;;;;;;;4975282;28;19975;-69
2023/05/29 01:32:31;;;;;;;;;;;;;;;;;;4971750;28;20048;-69
2023/05/29 01:34:57;;;;;;;;;;;;;;;;;;4978087;28;19913;-69
2023/05/29 01:37:23;;;;;;;;;;;;;;;;;;4973124;28;19925;-69
2023/05/29 01:39:49;;;;;;;;;;;;;;;;;;4980218;28;20321;-69
2023/05/29 01:42:15;;;;;;;;;;;;;;;;;;4976365;28;20044;-69
2023/05/29 01:44:41;;;;;;;;;;;;;;;;;;4975859;28;20771;-69
2023/05/29 01:47:07;;;;;;;;;;;;;;;;;;4972056;28;19924;-70
2023/05/29 01:49:33;;;;;;;;;;;;;;;;;;4977977;28;20566;-70
2023/05/29 01:51:59;;;;;;;;;;;;;;;;;;4979752;28;19996;-71
2023/05/29 01:54:25;;;;;;;;;;;;;;;;;;4973318;28;19913;-70
2023/05/29 01:56:51;;;;;;;;;;;;;;;;;;4976375;28;20400;-70
2023/05/29 01:59:17;;;;;;;;;;;;;;;;;;4975729;28;19913;-70
2023/05/29 02:01:43;;;;;;;;;;;;;;;;;;4979650;28;19909;-70
2023/05/29 02:04:09;;;;;;;;;;;;;;;;;;4979444;28;19920;-71
2023/05/29 02:06:35;;;;;;;;;;;;;;;;;;4980562;28;19965;-70
2023/05/29 02:09:01;;;;;;;;;;;;;;;;;;4990909;28;19917;-70
2023/05/29 02:11:27;;;;;;;;;;;;;;;;;;4976563;28;20064;-70
2023/05/29 02:13:54;;;;;;;;;;;;;;;;;;4977007;28;19982;-70
2023/05/29 02:16:20;;;;;;;;;;;;;;;;;;4977591;28;19913;-70
2023/05/29 02:18:46;;;;;;;;;;;;;;;;;;4977618;28;19952;-70
2023/05/29 02:21:12;;;;;;;;;;;;;;;;;;4975177;28;19913;-70
2023/05/29 02:23:38;;;;;;;;;;;;;;;;;;4982425;28;19917;-69
2023/05/29 02:26:04;;;;;;;;;;;;;;;;;;4981310;28;20348;-69
2023/05/29 02:28:30;;;;;;;;;;;;;;;;;;5012812;28;20016;-69
2023/05/29 02:30:56;;;;;;;;;;;;;;;;;;4978066;28;20261;-69
2023/05/29 02:33:22;;;;;;;;;;;;;;;;;;4978455;28;20028;-69
2023/05/29 02:35:48;;;;;;;;;;;;;;;;;;4983632;28;20028;-69
2023/05/29 02:38:14;;;;;;;;;;;;;;;;;;4979234;28;19949;-69
2023/05/29 02:40:40;;;;;;;;;;;;;;;;;;5008525;28;19920;-69
2023/05/29 02:43:06;;;;;;;;;;;;;;;;;;4977340;28;19978;-69
2023/05/29 02:45:32;;;;;;;;;;;;;;;;;;4982817;28;20596;-69
2023/05/29 02:47:59;;;;;;;;;;;;;;;;;;4983326;28;19957;-68
2023/05/29 02:50:25;;;;;;;;;;;;;;;;;;4982216;28;19956;-69
2023/05/29 02:52:51;;;;;;;;;;;;;;;;;;4983185;28;19980;-68
2023/05/29 02:55:17;;;;;;;;;;;;;;;;;;4978580;28;20487;-68
2023/05/29 02:57:43;;;;;;;;;;;;;;;;;;4980678;28;20059;-68
2023/05/29 03:00:09;;;;;;;;;;;;;;;;;;5008693;28;20697;-68
2023/05/29 03:02:35;;;;;;;;;;;;;;;;;;4983133;28;19966;-68
2023/05/29 03:05:01;;;;;;;;;;;;;;;;;;4980283;28;19913;-68
2023/05/29 03:07:27;;;;;;;;;;;;;;;;;;4979880;28;20051;-68
2023/05/29 03:09:53;;;;;;;;;;;;;;;;;;4978693;28;19924;-68
2023/05/29 03:12:19;;;;;;;;;;;;;;;;;;4980367;28;20290;-69
2023/05/29 03:14:45;;;;;;;;;;;;;;;;;;4981586;28;19914;-69
2023/05/29 03:17:12;;;;;;;;;;;;;;;;;;4974818;28;20338;-69
2023/05/29 03:19:38;;;;;;;;;;;;;;;;;;4976757;28;19952;-69
2023/05/29 03:22:04;;;;;;;;;;;;;;;;;;4974230;28;20016;-69
2023/05/29 03:24:30;;;;;;;;;;;;;;;;;;4979067;28;20340;-69
2023/05/29 03:26:56;;;;;;;;;;;;;;;;;;4976877;28;20419;-69
2023/05/29 03:29:22;;;;;;;;;;;;;;;;;;4972643;28;20034;-69
2023/05/29 03:31:48;;;;;;;;;;;;;;;;;;4980000;28;20342;-69
2023/05/29 03:34:14;;;;;;;;;;;;;;;;;;4977143;28;19913;-69
2023/05/29 03:36:40;;;;;;;;;;;;;;;;;;4975248;28;20051;-69
2023/05/29 03:39:06;;;;;;;;;;;;;;;;;;4975552;28;20364;-69
2023/05/29 03:41:32;;;;;;;;;;;;;;;;;;4981309;28;19909;-69
2023/05/29 03:43:58;;;;;;;;;;;;;;;;;;4980380;28;20695;-69
2023/05/29 03:46:24;;;;;;;;;;;;;;;;;;4973080;28;19913;-69
2023/05/29 03:48:50;;;;;;;;;;;;;;;;;;4980262;28;20354;-69
2023/05/29 03:51:16;;;;;;;;;;;;;;;;;;4974785;28;19917;-69
2023/05/29 03:53:42;;;;;;;;;;;;;;;;;;4974308;28;19913;-70
2023/05/29 03:56:08;;;;;;;;;;;;;;;;;;4973481;28;20043;-69
2023/05/29 03:58:36;;;;;;;;;;;;;;;;;;4977557;28;19967;-69
2023/05/29 04:01:02;;;;;;;;;;;;;;;;;;4972132;28;19920;-69
2023/05/29 04:03:29;;;;;;;;;;;;;;;;;;4977406;28;19913;-69
2023/05/29 04:05:55;;;;;;;;;;;;;;;;;;4975585;28;20039;-69
2023/05/29 04:08:21;;;;;;;;;;;;;;;;;;4970558;28;20526;-69
2023/05/29 04:10:47;;;;;;;;;;;;;;;;;;4976793;28;20042;-70
2023/05/29 04:13:13;;;;;;;;;;;;;;;;;;4976596;28;20106;-69
2023/05/29 04:15:39;;;;;;;;;;;;;;;;;;4977845;28;19913;-69
2023/05/29 04:18:05;;;;;;;;;;;;;;;;;;4979781;28;20425;-69
2023/05/29 04:20:31;;;;;;;;;;;;;;;;;;4978086;28;20530;-69
2023/05/29 04:22:57;;;;;;;;;;;;;;;;;;4980772;28;20037;-69
2023/05/29 04:25:23;;;;;;;;;;;;;;;;;;4977518;28;19913;-69
2023/05/29 04:27:49;;;;;;;;;;;;;;;;;;4976675;28;19914;-69
2023/05/29 04:30:15;;;;;;;;;;;;;;;;;;4975996;28;20372;-69
2023/05/29 04:32:41;;;;;;;;;;;;;;;;;;4979222;28;19913;-69
2023/05/29 04:35:07;;;;;;;;;;;;;;;;;;4972158;28;20327;-70
2023/05/29 04:37:38;;;;;;;;;;;;;;;;;;4977704;28;20357;-70
2023/05/29 04:40:08;;;;;;;;;;;;;;;;;;4972574;28;19964;-69
2023/05/29 04:42:34;;;;;;;;;;;;;;;;;;4979781;28;20031;-69
2023/05/29 04:45:00;;;;;;;;;;;;;;;;;;4981003;28;19925;-69
2023/05/29 04:47:27;;;;;;;;;;;;;;;;;;4978706;28;19936;-69
2023/05/29 04:49:53;;;;;;;;;;;;;;;;;;4977427;28;19929;-69
2023/05/29 04:52:20;;;;;;;;;;;;;;;;;;4974728;28;19913;-69
2023/05/29 04:54:46;;;;;;;;;;;;;;;;;;4979901;28;20379;-69
2023/05/29 04:57:12;;;;;;;;;;;;;;;;;;4979297;28;19913;-69
2023/05/29 04:59:38;;;;;;;;;;;;;;;;;;4979380;28;19983;-69
2023/05/29 05:02:05;;;;;;;;;;;;;;;;;;4976415;28;19936;-69
2023/05/29 05:04:32;;;;;;;;;;;;;;;;;;4977320;28;20909;-69
2023/05/29 05:06:58;;;;;;;;;;;;;;;;;;4973539;28;20028;-69
2023/05/29 05:09:24;;;;;;;;;;;;;;;;;;4971144;28;19917;-69
2023/05/29 05:11:50;;;;;;;;;;;;;;;;;;4975085;28;20413;-70
2023/05/29 05:14:16;;;;;;;;;;;;;;;;;;4973312;28;19921;-69
2023/05/29 05:16:41;;;;;;;;;;;;;;;;;;4980431;28;19957;-69
2023/05/29 05:19:07;;;;;;;;;;;;;;;;;;4974181;28;20333;-69
2023/05/29 05:21:33;;;;;;;;;;;;;;;;;;4978232;28;19924;-69
2023/05/29 05:24:00;;;;;;;;;;;;;;;;;;4977690;28;19976;-68
2023/05/29 05:26:26;;;;;;;;;;;;;;;;;;4974256;28;19917;-69
2023/05/29 05:28:52;;;;;;;;;;;;;;;;;;4978501;28;19918;-69
2023/05/29 05:31:18;;;;;;;;;;;;;;;;;;4977201;28;19919;-68
2023/05/29 05:33:44;;;;;;;;;;;;;;;;;;4984163;28;19948;-69
2023/05/29 05:36:10;;;;;;;;;;;;;;;;;;4979747;28;19940;-69
2023/05/29 05:38:36;;;;;;;;;;;;;;;;;;4979536;28;20356;-69
2023/05/29 05:41:02;;;;;;;;;;;;;;;;;;4979288;28;19928;-68
2023/05/29 05:43:29;;;;;;;;;;;;;;;;;;4984593;28;19917;-69
2023/05/29 05:45:54;;;;;;;;;;;;;;;;;;4978248;28;20381;-69
2023/05/29 05:48:20;;;;;;;;;;;;;;;;;;4979230;28;19913;-69
2023/05/29 05:50:46;;;;;;;;;;;;;;;;;;4984582;28;19917;-69
2023/05/29 05:53:12;;;;;;;;;;;;;;;;;;4982302;28;20479;-69
2023/05/29 05:55:38;;;;;;;;;;;;;;;;;;4987322;28;19913;-68
2023/05/29 05:58:04;;;;;;;;;;;;;;;;;;4979169;28;19918;-68
2023/05/29 06:00:30;;;;;;;;;;;;;;;;;;4984764;28;19941;-69
2023/05/29 06:02:57;;;;;;;;;;;;;;;;;;4986182;28;19925;-68
2023/05/29 06:05:23;;;;;;;;;;;;;;;;;;4981789;28;19928;-69
2023/05/29 06:07:49;;;;;;;;;;;;;;;;;;4984786;28;19917;-69
2023/05/29 06:10:15;;;;;;;;;;;;;;;;;;4981073;28;20015;-68
2023/05/29 06:12:41;;;;;;;;;;;;;;;;;;4983288;28;19972;-69
2023/05/29 06:15:07;;;;;;;;;;;;;;;;;;4980148;28;20003;-69
2023/05/29 06:17:33;;;;;;;;;;;;;;;;;;4983732;28;19913;-69
2023/05/29 06:20:00;;;;;;;;;;;;;;;;;;4997183;28;20056;-69
2023/05/29 06:22:26;;;;;;;;;;;;;;;;;;4976122;28;20773;-69
2023/05/29 06:24:52;;;;;;;;;;;;;;;;;;4983803;28;20221;-69
2023/05/29 06:27:18;;;;;;;;;;;;;;;;;;4976813;28;19925;-69
2023/05/29 06:29:44;;;;;;;;;;;;;;;;;;4982667;28;19925;-68
2023/05/29 06:32:10;;;;;;;;;;;;;;;;;;4975940;28;20240;-69
2023/05/29 06:34:36;;;;;;;;;;;;;;;;;;4984461;28;19913;-69
2023/05/29 06:37:02;;;;;;;;;;;;;;;;;;4978677;28;19917;-69
2023/05/29 06:39:28;;;;;;;;;;;;;;;;;;4985959;28;19914;-73
2023/05/29 06:41:55;;;;;;;;;;;;;;;;;;4978683;28;19961;-69
2023/05/29 06:44:21;;;;;;;;;;;;;;;;;;4977622;28;19913;-68
2023/05/29 06:46:47;;;;;;;;;;;;;;;;;;4978961;28;19920;-68
2023/05/29 06:49:13;;;;;;;;;;;;;;;;;;4976227;28;19948;-68
2023/05/29 06:51:38;;;;;;;;;;;;;;;;;;4982769;28;19942;-68
2023/05/29 06:54:05;;;;;;;;;;;;;;;;;;4978895;28;20031;-68
2023/05/29 06:56:31;;;;;;;;;;;;;;;;;;4980912;28;20440;-68
2023/05/29 06:58:56;;;;;;;;;;;;;;;;;;4980378;28;19920;-68
2023/05/29 07:01:23;;;;;;;;;;;;;;;;;;4975518;28;19916;-68
2023/05/29 07:03:49;;;;;;;;;;;;;;;;;;4981264;28;19988;-70
2023/05/29 07:06:15;;;;;;;;;;;;;;;;;;4978460;28;19984;-68
2023/05/29 07:08:41;;;;;;;;;;;;;;;;;;4981457;28;20693;-68
2023/05/29 07:11:07;;;;;;;;;;;;;;;;;;4979595;28;20301;-68
2023/05/29 07:13:33;;;;;;;;;;;;;;;;;;4981693;28;19921;-68
2023/05/29 07:15:59;;;;;;;;;;;;;;;;;;4978441;28;19917;-68
2023/05/29 07:18:25;;;;;;;;;;;;;;;;;;4972775;28;20027;-69
2023/05/29 07:20:51;;;;;;;;;;;;;;;;;;4977039;28;20314;-71
2023/05/29 07:23:17;;;;;;;;;;;;;;;;;;4973900;28;19924;-70
2023/05/29 07:25:43;;;;;;;;;;;;;;;;;;4990876;28;20461;-71
2023/05/29 07:28:10;;;;;;;;;;;;;;;;;;4975939;28;20036;-71
2023/05/29 07:30:35;;;;;;;;;;;;;;;;;;4977190;28;20412;-71
2023/05/29 07:33:02;;;;;;;;;;;;;;;;;;4975747;28;19914;-72
2023/05/29 07:35:28;;;;;;;;;;;;;;;;;;4977846;28;19925;-71
2023/05/29 07:37:54;;;;;;;;;;;;;;;;;;4976684;28;20372;-71
2023/05/29 07:40:20;;;;;;;;;;;;;;;;;;4976679;28;19913;-72
2023/05/29 07:42:46;;;;;;;;;;;;;;;;;;4981681;28;20821;-72
2023/05/29 07:45:12;;;;;;;;;;;;;;;;;;4974688;28;20183;-71
2023/05/29 07:47:38;;;;;;;;;;;;;;;;;;4975825;28;19922;-71
2023/05/29 07:50:05;;;;;;;;;;;;;;;;;;4969981;28;20085;-73
2023/05/29 07:52:31;;;;;;;;;;;;;;;;;;4978052;28;19921;-73
2023/05/29 07:54:58;;;;;;;;;;;;;;;;;;4974647;28;20301;-73
2023/05/29 07:57:25;;;;;;;;;;;;;;;;;;4974829;28;19913;-71
2023/05/29 07:59:51;;;;;;;;;;;;;;;;;;4974586;28;20105;-71
2023/05/29 08:02:17;;;;;;;;;;;;;;;;;;4978987;28;20505;-73
2023/05/29 08:04:43;;;;;;;;;;;;;;;;;;4979390;28;19917;-72
2023/05/29 08:07:09;;;;;;;;;;;;;;;;;;4977048;28;20452;-73
2023/05/29 08:09:35;;;;;;;;;;;;;;;;;;4980338;28;20504;-73
2023/05/29 08:12:01;;;;;;;;;;;;;;;;;;4984162;28;19988;-73
2023/05/29 08:14:27;;;;;;;;;;;;;;;;;;4979428;28;19936;-73
2023/05/29 08:16:53;;;;;;;;;;;;;;;;;;4982123;28;20353;-72
2023/05/29 08:19:19;;;;;;;;;;;;;;;;;;4979840;28;20838;-72
2023/05/29 08:21:45;;;;;;;;;;;;;;;;;;4977368;28;20394;-73
2023/05/29 08:24:12;;;;;;;;;;;;;;;;;;4976082;28;19932;-72
2023/05/29 08:26:38;;;;;;;;;;;;;;;;;;4981661;28;20662;-72
2023/05/29 08:29:04;;;;;;;;;;;;;;;;;;4976564;28;20431;-73
2023/05/29 08:31:30;;;;;;;;;;;;;;;;;;4980132;28;20669;-72
2023/05/29 08:33:56;;;;;;;;;;;;;;;;;;4983256;28;20418;-72
2023/05/29 08:36:22;;;;;;;;;;;;;;;;;;4978257;28;19943;-72
2023/05/29 08:38:48;;;;;;;;;;;;;;;;;;4982388;28;19952;-72
2023/05/29 08:41:15;;;;;;;;;;;;;;;;;;4979652;28;19913;-72
2023/05/29 08:43:41;;;;;;;;;;;;;;;;;;4984642;28;19979;-72
2023/05/29 08:46:07;;;;;;;;;;;;;;;;;;4981445;28;19949;-72
2023/05/29 08:48:33;;;;;;;;;;;;;;;;;;4978807;28;19987;-72
2023/05/29 08:50:59;;;;;;;;;;;;;;;;;;5011729;28;19924;-73
2023/05/29 08:53:25;;;;;;;;;;;;;;;;;;4976688;28;20810;-72
2023/05/29 08:55:52;;;;;;;;;;;;;;;;;;4978862;28;20008;-72
2023/05/29 08:58:18;;;;;;;;;;;;;;;;;;4978977;28;20582;-72
2023/05/29 09:00:44;;;;;;;;;;;;;;;;;;4979422;28;19929;-72
2023/05/29 09:03:10;;;;;;;;;;;;;;;;;;4973137;28;20306;-72
2023/05/29 09:05:40;;;;;;;;;;;;;;;;;;4985479;28;20004;-71
2023/05/29 09:08:06;;;;;;;;;;;;;;;;;;4981696;28;19920;-71
2023/05/29 09:10:32;;;;;;;;;;;;;;;;;;4986218;28;20035;-71
2023/05/29 09:12:57;;;;;;;;;;;;;;;;;;4985655;28;20303;-71
2023/05/29 09:15:23;;;;;;;;;;;;;;;;;;4976504;28;20176;-71
2023/05/29 09:17:50;;;;;;;;;;;;;;;;;;4983273;28;19921;-71
2023/05/29 09:20:22;;;;;;;;;;;;;;;;;;4980804;28;19936;-71
2023/05/29 09:22:48;;;;;;;;;;;;;;;;;;4984172;28;20523;-72
2023/05/29 09:25:14;;;;;;;;;;;;;;;;;;4977926;28;20012;-72
2023/05/29 09:27:40;;;;;;;;;;;;;;;;;;4984437;28;19992;-70
2023/05/29 09:30:07;;;;;;;;;;;;;;;;;;4979195;28;20641;-71
2023/05/29 09:32:33;;;;;;;;;;;;;;;;;;4984647;28;19971;-71
2023/05/29 09:34:59;;;;;;;;;;;;;;;;;;4983737;28;20358;-71
2023/05/29 09:37:25;;;;;;;;;;;;;;;;;;4984615;28;19925;-71
2023/05/29 09:39:52;;;;;;;;;;;;;;;;;;4984003;28;20329;-72
2023/05/29 09:42:18;;;;;;;;;;;;;;;;;;4981280;28;20350;-72
2023/05/29 09:44:44;;;;;;;;;;;;;;;;;;4985469;28;19917;-72
2023/05/29 09:47:10;;;;;;;;;;;;;;;;;;4982554;28;19995;-72
2023/05/29 09:49:38;;;;;;;;;;;;;;;;;;4982695;28;21254;-72
2023/05/29 09:52:05;;;;;;;;;;;;;;;;;;4981505;28;19917;-72
2023/05/29 09:54:32;;;;;;;;;;;;;;;;;;4979467;28;19914;-72
2023/05/29 09:56:58;;;;;;;;;;;;;;;;;;4984316;28;20118;-72
2023/05/29 09:59:24;;;;;;;;;;;;;;;;;;4977652;28;20450;-72
2023/05/29 10:01:50;;;;;;;;;;;;;;;;;;4980323;28;19914;-71
2023/05/29 10:04:16;;;;;;;;;;;;;;;;;;4976112;28;20353;-72
2023/05/29 10:06:42;;;;;;;;;;;;;;;;;;4980420;28;19921;-72
2023/05/29 10:09:10;;;;;;;;;;;;;;;;;;4973794;28;19921;-72
2023/05/29 10:11:36;;;;;;;;;;;;;;;;;;4979757;28;19924;-71
2023/05/29 10:14:02;;;;;;;;;;;;;;;;;;4976823;28;19913;-71
2023/05/29 10:16:28;;;;;;;;;;;;;;;;;;4982213;28;20406;-71
2023/05/29 10:18:54;;;;;;;;;;;;;;;;;;4981643;28;20191;-70
2023/05/29 10:21:20;;;;;;;;;;;;;;;;;;4982224;28;19910;-70
2023/05/29 10:23:46;;;;;;;;;;;;;;;;;;4983190;28;20053;-70
2023/05/29 10:26:14;;;;;;;;;;;;;;;;;;4980032;28;19913;-71
2023/05/29 10:28:40;;;;;;;;;;;;;;;;;;4982256;28;20396;-71
2023/05/29 10:31:06;;;;;;;;;;;;;;;;;;4979879;28;19914;-71
2023/05/29 10:33:32;;;;;;;;;;;;;;;;;;4977484;28;20286;-70
2023/05/29 10:35:58;;;;;;;;;;;;;;;;;;4983715;28;19928;-71
2023/05/29 10:38:24;;;;;;;;;;;;;;;;;;4979232;28;20459;-71
2023/05/29 10:40:50;;;;;;;;;;;;;;;;;;4981328;28;20298;-71
2023/05/29 10:43:16;;;;;;;;;;;;;;;;;;4979124;28;19921;-71
2023/05/29 10:45:42;;;;;;;;;;;;;;;;;;4977358;28;19940;-71
2023/05/29 10:48:08;;;;;;;;;;;;;;;;;;4976880;28;19914;-71
2023/05/29 10:50:34;;;;;;;;;;;;;;;;;;4979974;28;19917;-71
2023/05/29 10:53:00;;;;;;;;;;;;;;;;;;4982527;28;19944;-71
2023/05/29 10:55:26;;;;;;;;;;;;;;;;;;4977548;28;20028;-71
2023/05/29 10:57:52;;;;;;;;;;;;;;;;;;4981966;28;20298;-71
2023/05/29 11:00:19;;;;;;;;;;;;;;;;;;4978717;28;20003;-71
2023/05/29 11:02:46;;;;;;;;;;;;;;;;;;4983409;28;19921;-70
2023/05/29 11:05:12;;;;;;;;;;;;;;;;;;4980376;28;20351;-70
2023/05/29 11:07:38;;;;;;;;;;;;;;;;;;4983420;28;19914;-72
2023/05/29 11:10:04;;;;;;;;;;;;;;;;;;4978595;28;20275;-72
2023/05/29 11:12:33;;;;;;;;;;;;;;;;;;4979991;28;20372;-72
2023/05/29 11:14:59;;;;;;;;;;;;;;;;;;4980053;28;19917;-72
2023/05/29 11:17:25;;;;;;;;;;;;;;;;;;4977283;28;19936;-72
2023/05/29 11:19:51;;;;;;;;;;;;;;;;;;4983215;28;19914;-71
2023/05/29 11:22:17;;;;;;;;;;;;;;;;;;4978625;28;19917;-69
2023/05/29 11:24:42;;;;;;;;;;;;;;;;;;4982527;28;19952;-72
2023/05/29 11:27:09;;;;;;;;;;;;;;;;;;4980103;28;19957;-70
2023/05/29 11:29:34;;;;;;;;;;;;;;;;;;4981802;28;19991;-70
2023/05/29 11:32:02;;;;;;;;;;;;;;;;;;4984688;28;19913;-70
2023/05/29 11:34:28;;;;;;;;;;;;;;;;;;4975716;28;19956;-72
2023/05/29 11:36:54;;;;;;;;;;;;;;;;;;4983452;28;20003;-72
2023/05/29 11:39:20;;;;;;;;;;;;;;;;;;4977882;28;19979;-70
2023/05/29 11:41:46;;;;;;;;;;;;;;;;;;4980172;28;20440;-70
2023/05/29 11:44:12;;;;;;;;;;;;;;;;;;4979767;28;19917;-70
2023/05/29 11:46:38;;;;;;;;;;;;;;;;;;4982162;28;20107;-70
2023/05/29 11:49:04;;;;;;;;;;;;;;;;;;4982571;28;19921;-73
2023/05/29 11:51:30;;;;;;;;;;;;;;;;;;4982190;28;20011;-72
2023/05/29 11:53:59;;;;;;;;;;;;;;;;;;4980460;28;19913;-71
2023/05/29 11:56:25;;;;;;;;;;;;;;;;;;4980548;28;20330;-71
2023/05/29 11:58:55;;;;;;;;;;;;;;;;;;4984018;28;19914;-71
2023/05/29 12:01:21;;;;;;;;;;;;;;;;;;4980762;28;20016;-71
2023/05/29 12:03:47;;;;;;;;;;;;;;;;;;4979846;28;20269;-73
2023/05/29 12:06:13;;;;;;;;;;;;;;;;;;4977687;28;20008;-72
2023/05/29 12:08:39;;;;;;;;;;;;;;;;;;4982490;28;20031;-73
2023/05/29 12:11:05;;;;;;;;;;;;;;;;;;4977069;28;19920;-74
2023/05/29 12:13:31;;;;;;;;;;;;;;;;;;4982514;28;20016;-73
2023/05/29 12:15:57;;;;;;;;;;;;;;;;;;4981216;28;19920;-73
2023/05/29 12:18:23;;;;;;;;;;;;;;;;;;4977459;28;19913;-72
2023/05/29 12:20:49;;;;;;;;;;;;;;;;;;4982373;28;19960;-72
2023/05/29 12:23:15;;;;;;;;;;;;;;;;;;4974635;28;20448;-72
2023/05/29 12:25:43;;;;;;;;;;;;;;;;;;4976925;28;19913;-72
2023/05/29 12:28:09;;;;;;;;;;;;;;;;;;4976868;28;19948;-72
2023/05/29 12:30:35;;;;;;;;;;;;;;;;;;4983994;28;20350;-72
2023/05/29 12:33:01;;;;;;;;;;;;;;;;;;4982507;28;19991;-72
2023/05/29 12:35:27;;;;;;;;;;;;;;;;;;4980433;28;19968;-72
2023/05/29 12:37:54;;;;;;;;;;;;;;;;;;4977064;28;19917;-72
2023/05/29 12:40:20;;;;;;;;;;;;;;;;;;4980343;28;20565;-72
2023/05/29 12:42:46;;;;;;;;;;;;;;;;;;4976948;28;19921;-72
2023/05/29 12:45:12;;;;;;;;;;;;;;;;;;4979535;28;19919;-72
2023/05/29 12:47:38;;;;;;;;;;;;;;;;;;4980087;28;19948;-72
2023/05/29 12:50:04;;;;;;;;;;;;;;;;;;4974053;28;20505;-72
2023/05/29 12:52:30;;;;;;;;;;;;;;;;;;4984975;28;20366;-72
2023/05/29 12:54:56;;;;;;;;;;;;;;;;;;4980092;28;19913;-72
2023/05/29 12:57:22;;;;;;;;;;;;;;;;;;4979370;28;19917;-73
2023/05/29 12:59:48;;;;;;;;;;;;;;;;;;4983880;28;20139;-72
2023/05/29 13:02:15;;;;;;;;;;;;;;;;;;4978751;28;19960;-72
2023/05/29 13:04:41;;;;;;;;;;;;;;;;;;4982359;28;19984;-73
2023/05/29 13:07:07;;;;;;;;;;;;;;;;;;4978327;28;20048;-72
2023/05/29 13:09:33;;;;;;;;;;;;;;;;;;4979099;28;19928;-72
2023/05/29 13:12:01;;;;;;;;;;;;;;;;;;4982179;28;19925;-72
2023/05/29 13:14:27;;;;;;;;;;;;;;;;;;4981102;28;20507;-72
2023/05/29 13:16:53;;;;;;;;;;;;;;;;;;4983534;28;20036;-72
2023/05/29 13:19:19;;;;;;;;;;;;;;;;;;4982181;28;19913;-73
2023/05/29 13:21:48;;;;;;;;;;;;;;;;;;4982835;28;20366;-72
2023/05/29 13:24:14;;;;;;;;;;;;;;;;;;4983000;28;20408;-72
2023/05/29 13:26:40;;;;;;;;;;;;;;;;;;4981400;28;19988;-72
2023/05/29 13:29:06;;;;;;;;;;;;;;;;;;4977746;28;19955;-72
2023/05/29 13:31:32;;;;;;;;;;;;;;;;;;4985142;28;19920;-72
2023/05/29 13:33:58;;;;;;;;;;;;;;;;;;4986751;28;19909;-72
2023/05/29 13:36:24;;;;;;;;;;;;;;;;;;4982750;28;19924;-73
2023/05/29 13:38:50;;;;;;;;;;;;;;;;;;4987142;28;20257;-72
2023/05/29 13:41:16;;;;;;;;;;;;;;;;;;4983162;28;20289;-72
2023/05/29 13:43:42;;;;;;;;;;;;;;;;;;4980337;28;19979;-72
2023/05/29 13:46:08;;;;;;;;;;;;;;;;;;4981488;28;20019;-72
2023/05/29 13:48:34;;;;;;;;;;;;;;;;;;5006488;28;19976;-73
2023/05/29 13:51:00;;;;;;;;;;;;;;;;;;4983834;28;19914;-73
2023/05/29 13:53:25;;;;;;;;;;;;;;;;;;4985014;28;20491;-73
2023/05/29 13:55:51;;;;;;;;;;;;;;;;;;4986353;28;20329;-72
2023/05/29 13:58:17;;;;;;;;;;;;;;;;;;4996320;28;20330;-73
2023/05/29 14:00:43;;;;;;;;;;;;;;;;;;4984726;28;19944;-73
2023/05/29 14:03:09;;;;;;;;;;;;;;;;;;4981819;28;19917;-73
2023/05/29 14:05:35;;;;;;;;;;;;;;;;;;4986448;28;20369;-73
2023/05/29 14:08:01;;;;;;;;;;;;;;;;;;4987144;28;20181;-71
2023/05/29 14:10:27;;;;;;;;;;;;;;;;;;4989066;28;20454;-72
2023/05/29 14:12:53;;;;;;;;;;;;;;;;;;4983808;28;19913;-73
2023/05/29 14:15:19;;;;;;;;;;;;;;;;;;4981938;28;19983;-73
2023/05/29 14:17:45;;;;;;;;;;;;;;;;;;4984388;28;19967;-71
2023/05/29 14:20:11;;;;;;;;;;;;;;;;;;4983685;28;19921;-71
2023/05/29 14:22:37;;;;;;;;;;;;;;;;;;4984480;28;20032;-71
2023/05/29 14:25:04;;;;;;;;;;;;;;;;;;4981558;28;20343;-74
2023/05/29 14:27:29;;;;;;;;;;;;;;;;;;4980391;28;20044;-72
2023/05/29 14:29:55;;;;;;;;;;;;;;;;;;4984937;28;19917;-73
2023/05/29 14:32:21;;;;;;;;;;;;;;;;;;4982184;28;19924;-74
2023/05/29 14:34:48;;;;;;;;;;;;;;;;;;4982907;28;20506;-73
2023/05/29 14:37:14;;;;;;;;;;;;;;;;;;4981272;28;19931;-73
2023/05/29 14:39:40;;;;;;;;;;;;;;;;;;4985156;28;19924;-73
2023/05/29 14:42:06;;;;;;;;;;;;;;;;;;4983677;28;20297;-73
2023/05/29 14:44:33;;;;;;;;;;;;;;;;;;4988754;28;19956;-72
2023/05/29 14:46:59;;;;;;;;;;;;;;;;;;4985209;28;19917;-75
2023/05/29 14:49:28;;;;;;;;;;;;;;;;;;4984915;28;19917;-74
2023/05/29 14:51:54;;;;;;;;;;;;;;;;;;4984282;28;20060;-73
2023/05/29 14:54:20;;;;;;;;;;;;;;;;;;4977661;28;19920;-74
2023/05/29 14:56:46;;;;;;;;;;;;;;;;;;4984159;28;19910;-74
2023/05/29 14:59:12;;;;;;;;;;;;;;;;;;4982190;28;19913;-74
2023/05/29 15:01:38;;;;;;;;;;;;;;;;;;4987192;28;19925;-74
2023/05/29 15:04:05;;;;;;;;;;;;;;;;;;4982194;28;19919;-73
2023/05/29 15:06:32;;;;;;;;;;;;;;;;;;4985918;28;20440;-73
2023/05/29 15:09:00;;;;;;;;;;;;;;;;;;4984942;28;20356;-73
2023/05/29 15:11:26;;;;;;;;;;;;;;;;;;4984097;28;19913;-74
2023/05/29 15:13:52;;;;;;;;;;;;;;;;;;4985357;28;19913;-73
2023/05/29 15:16:19;;;;;;;;;;;;;;;;;;4979705;28;19917;-73
2023/05/29 15:18:45;;;;;;;;;;;;;;;;;;4984065;28;19913;-74
2023/05/29 15:21:11;;;;;;;;;;;;;;;;;;4979127;28;19921;-73
2023/05/29 15:23:38;;;;;;;;;;;;;;;;;;4983043;28;20265;-73
2023/05/29 15:26:04;;;;;;;;;;;;;;;;;;4978961;28;19921;-73
2023/05/29 15:28:30;;;;;;;;;;;;;;;;;;4983997;28;20393;-71
2023/05/29 15:30:56;;;;;;;;;;;;;;;;;;4983640;28;19944;-71
2023/05/29 15:33:22;;;;;;;;;;;;;;;;;;4980528;28;20039;-71
2023/05/29 15:35:49;;;;;;;;;;;;;;;;;;4985236;28;20115;-72
2023/05/29 15:38:15;;;;;;;;;;;;;;;;;;4981458;28;20422;-72
2023/05/29 15:40:41;;;;;;;;;;;;;;;;;;4986453;28;19917;-72
2023/05/29 15:43:07;;;;;;;;;;;;;;;;;;4979137;28;19913;-72
2023/05/29 15:45:33;;;;;;;;;;;;;;;;;;4985474;28;19917;-72
2023/05/29 15:47:59;;;;;;;;;;;;;;;;;;4985389;28;19917;-72
2023/05/29 15:50:25;;;;;;;;;;;;;;;;;;4981095;28;19921;-72
2023/05/29 15:52:51;;;;;;;;;;;;;;;;;;4984756;28;20254;-72
2023/05/29 15:55:17;;;;;;;;;;;;;;;;;;4980460;28;19917;-72
2023/05/29 15:57:43;;;;;;;;;;;;;;;;;;4981896;28;19913;-72
2023/05/29 16:00:11;;;;;;;;;;;;;;;;;;4979962;28;20406;-72
2023/05/29 16:02:37;;;;;;;;;;;;;;;;;;4982185;28;20166;-73
2023/05/29 16:05:03;;;;;;;;;;;;;;;;;;4974770;28;20010;-72
2023/05/29 16:07:29;;;;;;;;;;;;;;;;;;4984185;28;19955;-73
2023/05/29 16:09:55;;;;;;;;;;;;;;;;;;4980032;28;20105;-73
2023/05/29 16:12:21;;;;;;;;;;;;;;;;;;4979851;28;19921;-72
2023/05/29 16:14:47;;;;;;;;;;;;;;;;;;4978920;28;19917;-72
2023/05/29 16:17:13;;;;;;;;;;;;;;;;;;4975579;28;20248;-72
2023/05/29 16:19:40;;;;;;;;;;;;;;;;;;4980672;28;19999;-72
2023/05/29 16:22:06;;;;;;;;;;;;;;;;;;4980269;28;20456;-72
2023/05/29 16:24:32;;;;;;;;;;;;;;;;;;4985050;28;19929;-73
2023/05/29 16:26:58;;;;;;;;;;;;;;;;;;4984529;28;20199;-73
2023/05/29 16:29:24;;;;;;;;;;;;;;;;;;4982290;28;19921;-73
2023/05/29 16:31:50;;;;;;;;;;;;;;;;;;4982871;28;19913;-73
2023/05/29 16:34:16;;;;;;;;;;;;;;;;;;4979460;28;20994;-72
2023/05/29 16:36:42;;;;;;;;;;;;;;;;;;4981296;28;19925;-72
2023/05/29 16:39:08;;;;;;;;;;;;;;;;;;4982027;28;20012;-72